createdAt,value
2023-02-06T00:04:30.504Z,37.72
2023-02-06T00:09:32.667Z,37.36
2023-02-06T00:14:34.840Z,37.20
2023-02-06T00:19:38.349Z,37.39
2023-02-06T00:24:41.336Z,37.32
2023-02-06T00:29:43.432Z,37.30
2023-02-06T00:34:45.607Z,37.11
2023-02-06T00:39:47.732Z,36.40
2023-02-06T00:44:49.823Z,36.75
2023-02-06T00:49:52.000Z,36.86
2023-02-06T00:54:54.122Z,36.87
2023-02-06T00:59:56.225Z,37.15
2023-02-06T01:04:58.322Z,36.37
2023-02-06T01:10:00.463Z,36.17
2023-02-06T01:15:02.979Z,36.19
2023-02-06T01:20:06.716Z,35.90
2023-02-06T01:25:09.045Z,35.66
2023-02-06T01:30:12.137Z,35.64
2023-02-06T01:35:14.326Z,35.54
2023-02-06T01:40:17.382Z,35.79
2023-02-06T01:45:22.147Z,35.12
2023-02-06T01:50:24.597Z,34.76
2023-02-06T01:55:26.871Z,35.29
2023-02-06T02:00:29.047Z,34.88
2023-02-06T02:05:33.569Z,35.14
2023-02-06T02:10:36.188Z,34.92
2023-02-06T02:16:03.167Z,34.32
2023-02-06T02:21:26.288Z,34.12
2023-02-06T02:26:49.977Z,34.66
2023-02-06T02:32:09.974Z,34.50
2023-02-06T02:37:26.243Z,34.75
2023-02-06T02:42:57.190Z,34.60
2023-02-06T02:48:08.654Z,34.41
2023-02-06T02:53:11.742Z,34.31
2023-02-06T02:58:19.818Z,34.42
2023-02-06T03:03:25.505Z,34.35
2023-02-06T03:08:46.482Z,34.73
2023-02-06T03:13:55.975Z,34.62
2023-02-06T03:19:14.193Z,35.50
2023-02-06T03:24:21.724Z,35.48
2023-02-06T03:29:25.379Z,35.92
2023-02-06T03:35:02.314Z,37.02
2023-02-06T03:40:06.552Z,37.71
2023-02-06T03:45:11.395Z,38.26
2023-02-06T03:50:15.508Z,37.41
2023-02-06T03:55:22.754Z,37.95
2023-02-06T04:00:26.337Z,37.81
2023-02-06T04:05:28.978Z,39.02
2023-02-06T04:10:31.341Z,38.47
2023-02-06T04:15:33.674Z,38.73
2023-02-06T04:20:41.145Z,38.37
2023-02-06T04:25:43.220Z,38.91
2023-02-06T04:30:45.387Z,38.89
2023-02-06T04:35:48.935Z,39.11
2023-02-06T04:40:51.049Z,39.47
2023-02-06T04:45:53.156Z,39.80
2023-02-06T04:50:55.234Z,39.63
2023-02-06T04:56:08.918Z,38.78
2023-02-06T05:01:11.169Z,38.06
2023-02-06T05:06:14.008Z,37.33
2023-02-06T05:11:16.171Z,37.76
2023-02-06T05:16:19.232Z,37.97
2023-02-06T05:21:21.893Z,37.33
2023-02-06T05:26:24.226Z,37.26
2023-02-06T05:31:26.543Z,37.37
2023-02-06T05:36:29.598Z,37.57
2023-02-06T05:41:31.911Z,37.76
2023-02-06T05:46:34.003Z,38.11
2023-02-06T05:51:36.277Z,37.87
2023-02-06T05:56:38.471Z,38.16
2023-02-06T06:01:40.597Z,37.92
2023-02-06T06:06:42.676Z,38.31
2023-02-06T06:11:44.808Z,38.16
2023-02-06T06:16:46.950Z,38.02
2023-02-06T06:21:49.148Z,38.26
2023-02-06T06:26:51.397Z,38.31
2023-02-06T06:31:54.139Z,38.06
2023-02-06T06:36:56.407Z,37.97
2023-02-06T06:41:58.555Z,37.64
2023-02-06T06:47:00.645Z,37.82
2023-02-06T06:52:03.640Z,38.57
2023-02-06T06:57:06.626Z,38.03
2023-02-06T07:02:10.332Z,38.01
2023-02-06T07:07:12.430Z,38.08
2023-02-06T07:12:14.597Z,37.58
2023-02-06T07:17:16.718Z,37.40
2023-02-06T07:22:21.868Z,37.79
2023-02-06T07:27:24.072Z,37.18
2023-02-06T07:32:27.361Z,36.67
2023-02-06T07:37:29.498Z,36.07
2023-02-06T07:42:33.746Z,36.12
2023-02-06T07:47:35.837Z,35.48
2023-02-06T07:52:38.153Z,35.77
2023-02-06T07:57:40.237Z,35.27
2023-02-06T08:02:42.760Z,35.05
2023-02-06T08:07:45.000Z,34.50
2023-02-06T08:12:47.361Z,34.10
2023-02-06T08:17:49.646Z,33.76
2023-02-06T08:22:51.891Z,33.24
2023-02-06T08:27:57.337Z,32.57
2023-02-06T08:32:59.643Z,32.81
2023-02-06T08:38:01.928Z,33.11
2023-02-06T08:43:04.199Z,32.38
2023-02-06T08:48:06.627Z,31.65
2023-02-06T08:53:08.936Z,31.59
2023-02-06T08:58:11.147Z,31.12
2023-02-06T09:03:13.318Z,31.16
2023-02-06T09:08:15.814Z,31.16
2023-02-06T09:13:18.018Z,31.06
2023-02-06T09:18:20.653Z,30.21
2023-02-06T09:23:22.836Z,30.15
2023-02-06T09:28:25.071Z,29.95
2023-02-06T09:33:27.677Z,29.95
2023-02-06T09:38:29.941Z,29.63
2023-02-06T09:43:34.026Z,29.21
2023-02-06T09:48:39.975Z,29.48
2023-02-06T09:53:48.141Z,28.88
2023-02-06T09:59:06.157Z,28.38
2023-02-06T10:04:33.820Z,28.47
2023-02-06T10:09:52.276Z,29.37
2023-02-06T10:15:07.737Z,28.84
2023-02-06T10:20:22.936Z,28.74
2023-02-06T10:25:37.416Z,28.79
2023-02-06T10:31:03.840Z,27.88
2023-02-06T10:36:24.501Z,27.45
2023-02-06T10:42:00.965Z,27.40
2023-02-06T10:47:11.450Z,27.54
2023-02-06T10:52:13.454Z,27.93
2023-02-06T10:57:20.733Z,27.32
2023-02-06T11:02:22.896Z,27.56
2023-02-06T11:07:38.607Z,27.87
2023-02-06T11:13:11.421Z,27.91
2023-02-06T11:18:19.613Z,26.27
2023-02-06T11:23:27.541Z,26.51
2023-02-06T11:28:30.877Z,26.75
2023-02-06T11:33:42.174Z,26.25
2023-02-06T11:38:54.754Z,26.42
2023-02-06T11:44:02.951Z,26.17
2023-02-06T11:49:20.258Z,26.01
2023-02-06T11:54:29.298Z,25.24
2023-02-06T11:59:34.889Z,25.65
2023-02-06T12:04:41.715Z,25.00
2023-02-06T12:09:44.033Z,25.16
2023-02-06T12:14:49.682Z,25.95
2023-02-06T12:20:03.247Z,26.18
2023-02-06T12:25:05.878Z,26.69
2023-02-06T12:30:27.866Z,26.70
2023-02-06T12:35:44.161Z,26.37
2023-02-06T12:40:49.337Z,25.96
2023-02-06T12:46:02.862Z,25.63
2023-02-06T12:51:29.117Z,25.63
2023-02-06T12:56:49.202Z,25.53
2023-02-06T13:01:56.818Z,25.86
2023-02-06T13:07:06.826Z,25.90
2023-02-06T13:12:16.301Z,25.39
2023-02-06T13:17:27.206Z,25.94
2023-02-06T13:22:40.312Z,25.29
2023-02-06T13:27:42.588Z,25.56
2023-02-06T13:32:48.678Z,24.97
2023-02-06T13:37:52.102Z,25.07
2023-02-06T13:43:14.088Z,24.68
2023-02-06T13:48:47.833Z,24.03
2023-02-06T13:54:01.864Z,24.61
2023-02-06T13:59:24.243Z,24.21
2023-02-06T14:04:30.320Z,24.04
2023-02-06T14:09:50.320Z,24.23
2023-02-06T14:15:18.945Z,24.32
2023-02-06T14:20:47.712Z,23.97
2023-02-06T14:26:01.179Z,24.07
2023-02-06T14:31:13.577Z,24.35
2023-02-06T14:36:41.322Z,24.50
2023-02-06T14:41:43.692Z,24.22
2023-02-06T14:46:46.385Z,23.75
2023-02-06T14:51:51.662Z,23.88
2023-02-06T14:56:59.288Z,24.84
2023-02-06T15:02:14.095Z,23.77
2023-02-06T15:07:25.474Z,24.33
2023-02-06T15:12:29.536Z,24.44
2023-02-06T15:17:32.597Z,23.89
2023-02-06T15:22:36.157Z,24.39
2023-02-06T15:27:39.196Z,25.45
2023-02-06T15:32:41.531Z,25.93
2023-02-06T15:37:43.838Z,26.22
2023-02-06T15:42:50.545Z,26.37
2023-02-06T15:47:54.951Z,26.51
2023-02-06T15:52:57.280Z,27.44
2023-02-06T15:58:02.394Z,26.66
2023-02-06T16:03:08.710Z,26.98
2023-02-06T16:08:23.519Z,27.25
2023-02-06T16:13:28.660Z,28.08
2023-02-06T16:18:33.975Z,27.90
2023-02-06T16:23:51.704Z,28.06
2023-02-06T16:29:27.988Z,28.68
2023-02-06T16:34:40.965Z,29.32
2023-02-06T16:39:44.448Z,28.63
2023-02-06T16:44:50.088Z,28.11
2023-02-06T16:49:52.501Z,27.96
2023-02-06T16:55:02.085Z,28.05
2023-02-06T17:00:25.685Z,28.26
2023-02-06T17:05:29.384Z,28.92
2023-02-06T17:10:31.588Z,28.60
2023-02-06T17:15:33.935Z,28.23
2023-02-06T17:20:39.486Z,28.78
2023-02-06T17:25:44.300Z,27.83
2023-02-06T17:30:46.913Z,28.54
2023-02-06T17:35:49.506Z,28.13
2023-02-06T17:40:51.843Z,28.15
2023-02-06T17:45:53.963Z,28.39
2023-02-06T17:50:56.075Z,28.25
2023-02-06T17:55:58.218Z,28.61
2023-02-06T18:01:00.467Z,28.38
2023-02-06T18:06:03.280Z,28.01
2023-02-06T18:11:13.661Z,28.40
2023-02-06T18:16:21.535Z,28.06
2023-02-06T18:21:24.963Z,27.71
2023-02-06T18:26:28.011Z,27.69
2023-02-06T18:31:35.521Z,27.49
2023-02-06T18:36:38.462Z,27.72
2023-02-06T18:41:58.821Z,28.34
2023-02-06T18:47:00.914Z,30.12
2023-02-06T18:52:04.001Z,30.19
2023-02-06T18:57:06.703Z,30.24
2023-02-06T19:02:10.685Z,30.26
2023-02-06T19:07:34.508Z,30.46
2023-02-06T19:12:39.204Z,30.58
2023-02-06T19:17:42.163Z,30.85
2023-02-06T19:22:44.344Z,30.29
2023-02-06T19:27:46.554Z,30.90
2023-02-06T19:32:51.763Z,31.20
2023-02-06T19:37:53.832Z,31.47
2023-02-06T19:42:55.998Z,31.68
2023-02-06T19:47:58.434Z,31.96
2023-02-06T19:53:00.827Z,31.67
2023-02-06T19:58:03.275Z,31.82
2023-02-06T20:03:05.813Z,32.18
2023-02-06T20:08:08.004Z,32.23
2023-02-06T20:13:10.486Z,32.68
2023-02-06T20:18:12.987Z,33.01
2023-02-06T20:23:15.066Z,32.40
2023-02-06T20:28:17.216Z,33.08
2023-02-06T20:33:19.415Z,33.58
2023-02-06T20:38:21.570Z,34.32
2023-02-06T20:43:23.716Z,34.00
2023-02-06T20:48:26.114Z,34.23
2023-02-06T20:53:28.343Z,33.60
2023-02-06T20:58:30.673Z,33.66
2023-02-06T21:03:32.827Z,34.22
2023-02-06T21:08:35.146Z,33.63
2023-02-06T21:13:39.617Z,33.31
2023-02-06T21:18:42.929Z,33.86
2023-02-06T21:23:46.629Z,34.09
2023-02-06T21:28:48.800Z,33.93
2023-02-06T21:33:52.284Z,34.22
2023-02-06T21:38:54.465Z,34.89
2023-02-06T21:43:56.742Z,34.95
2023-02-06T21:48:58.910Z,35.04
2023-02-06T21:54:01.150Z,34.94
2023-02-06T21:59:03.303Z,34.77
2023-02-06T22:04:05.624Z,34.82
2023-02-06T22:09:10.043Z,34.80
2023-02-06T22:14:16.669Z,35.01
2023-02-06T22:19:18.931Z,35.39
2023-02-06T22:24:21.707Z,35.32
2023-02-06T22:29:24.137Z,35.25
2023-02-06T22:34:26.267Z,35.51
2023-02-06T22:39:28.410Z,35.59
2023-02-06T22:44:30.478Z,35.27
2023-02-06T22:49:32.584Z,35.47
2023-02-06T22:54:34.732Z,35.74
2023-02-06T22:59:36.812Z,35.29
2023-02-06T23:04:40.995Z,34.80
2023-02-06T23:09:43.209Z,35.01
2023-02-06T23:14:45.453Z,35.25
2023-02-06T23:19:47.587Z,35.00
2023-02-06T23:24:51.978Z,34.38
2023-02-06T23:29:54.135Z,34.05
2023-02-06T23:34:56.786Z,34.02
2023-02-06T23:39:59.174Z,33.81
2023-02-06T23:45:02.025Z,33.59
2023-02-06T23:50:05.715Z,33.49
2023-02-06T23:55:08.074Z,33.65
